Time;durP1;ratioP1;P1;durP2;ratioP2;P2;SDS_P1;SDS_P2;PMS_P1;PMS_P2;Temp;Humidity;BMP_temperature;BMP_pressure;BME280_temperature;BME280_humidity;BME280_pressure;Samples;Min_cycle;Max_cycle;Signal;HPM_P1;HPM_P2
2021/12/24 00:01:13;;;;;;;;;;;;;;;-1.17;74.09;99640.16;6271463;28;20041;-77
2021/12/24 00:04:14;;;;;;;19.25;9.65;;;;;;;-1.17;73.77;99620.53;6270935;28;19930;-77
2021/12/24 00:07:14;;;;;;;21.35;9.98;;;;;;;-1.14;75.08;99610.22;6270903;28;20442;-76
2021/12/24 00:10:16;;;;;;;22.08;10.25;;;;;;;-1.14;74.95;99628.16;6270839;28;20063;-76
2021/12/24 00:13:18;;;;;;;21.63;9.68;;;;;;;-1.15;74.75;99613.69;6269627;28;20044;-76
2021/12/24 00:16:26;;;;;;;21.88;9.57;;;;;;;-1.24;75.56;99601.88;6269786;28;20049;-76
2021/12/24 00:19:41;;;;;;;20.75;9.75;;;;;;;-1.19;77.13;99601.81;6269787;28;20545;-83
2021/12/24 00:35:42;;;;;;;20.67;9.13;;;;;;;-1.19;80.29;99572.78;6275496;28;20063;-83
2021/12/24 00:38:43;;;;;;;14.55;7.75;;;;;;;-1.21;81.39;99560.03;6275768;28;20048;-83
2021/12/24 00:41:43;;;;;;;23.45;10.80;;;;;;;-1.08;81.45;99560.63;6274533;28;20049;-84
2021/12/24 00:44:44;;;;;;;17.05;8.30;;;;;;;-1.15;82.11;99554.78;6274369;28;20044;-83
2021/12/24 00:47:45;;;;;;;23.17;10.85;;;;;;;-1.14;83.10;99565.88;6257834;28;20040;-76
2021/12/24 00:57:15;;;;;;;20.23;9.32;;;;;;;-1.10;85.74;99537.59;6275223;28;20041;-83
2021/12/24 01:00:33;;;;;;;14.70;7.65;;;;;;;-1.14;87.59;99532.59;6257608;28;20107;-83
2021/12/24 01:03:34;;;;;;;15.68;8.82;;;;;;;-1.03;88.34;99531.47;6275271;28;20048;-83
2021/12/24 01:06:35;;;;;;;19.65;9.75;;;;;;;-0.94;87.89;99519.34;6275040;28;20047;-83
2021/12/24 01:09:36;;;;;;;18.15;7.53;;;;;;;-1.00;90.04;99511.81;6275329;28;20045;-83
2021/12/24 01:12:37;;;;;;;15.18;9.10;;;;;;;-1.05;92.39;99506.75;6273795;28;20087;-83
2021/12/24 01:15:49;;;;;;;20.33;8.63;;;;;;;-0.95;93.48;99512.53;6257226;28;20045;-83
2021/12/24 01:38:23;;;;;;;23.25;11.32;;;;;;;-1.10;100.00;99467.63;6259315;28;20059;-83
2021/12/24 01:44:43;;;;;;;23.05;11.82;;;;;;;-1.17;100.00;99430.22;6273213;28;20335;-83
2021/12/24 01:47:44;;;;;;;21.00;11.30;;;;;;;-1.25;100.00;99423.56;6274155;28;20040;-83
2021/12/24 01:50:47;;;;;;;19.73;10.27;;;;;;;-1.19;100.00;99408.94;6256280;28;20136;-83
2021/12/24 01:53:47;;;;;;;21.10;11.68;;;;;;;-1.12;100.00;99403.66;6274008;28;20112;-83
2021/12/24 01:56:48;;;;;;;20.27;11.45;;;;;;;-1.38;100.00;99405.97;6274205;28;20056;-82
2021/12/24 01:59:50;;;;;;;28.50;13.55;;;;;;;-1.31;100.00;99413.47;6256129;28;20041;-83
2021/12/24 02:02:51;;;;;;;28.55;13.05;;;;;;;-1.14;100.00;99423.31;6274060;28;20041;-83
2021/12/24 02:05:51;;;;;;;31.95;13.93;;;;;;;-1.14;100.00;99412.25;6272733;28;20044;-83
2021/12/24 02:08:53;;;;;;;31.48;14.07;;;;;;;-1.21;100.00;99401.31;6273852;28;20045;-83
2021/12/24 02:11:53;;;;;;;24.92;13.88;;;;;;;-1.11;100.00;99399.34;6255871;28;20072;-83
2021/12/24 02:14:58;;;;;;;25.02;14.07;;;;;;;-1.04;100.00;99404.31;6272442;28;20510;-83
2021/12/24 02:31:36;;;;;;;26.42;14.18;;;;;;;-0.96;100.00;99387.94;6270315;28;20515;-82
2021/12/24 02:34:37;;;;;;;24.52;13.55;;;;;;;-0.87;100.00;99380.00;6253383;28;20126;-83
2021/12/24 02:37:38;;;;;;;29.73;15.75;;;;;;;-0.88;100.00;99373.22;6270690;28;20092;-75
2021/12/24 02:40:39;;;;;;;31.30;16.05;;;;;;;-0.91;100.00;99375.84;6272937;28;20097;-83
2021/12/24 02:43:41;;;;;;;30.88;16.38;;;;;;;-0.72;100.00;99369.38;6271689;28;20045;-84
2021/12/24 02:47:06;;;;;;;32.90;18.02;;;;;;;-0.70;100.00;99356.50;6271568;28;20040;-77
2021/12/24 02:56:32;;;;;;;37.13;19.70;;;;;;;-0.79;100.00;99326.84;6257580;28;20317;-84
2021/12/24 02:59:36;;;;;;;40.72;21.17;;;;;;;-0.68;100.00;99330.00;6272586;28;20049;-84
2021/12/24 03:02:38;;;;;;;29.42;15.32;;;;;;;-0.81;100.00;99319.19;6271212;28;20045;-82
2021/12/24 03:05:39;;;;;;;43.58;21.45;;;;;;;-0.81;100.00;99303.81;6254657;28;20068;-83
2021/12/24 03:08:40;;;;;;;42.53;22.30;;;;;;;-0.71;100.00;99295.91;6238142;28;20044;-83
2021/12/24 03:11:41;;;;;;;46.05;23.27;;;;;;;-0.63;100.00;99296.53;6271056;28;20135;-84
2021/12/24 03:14:42;;;;;;;42.72;22.05;;;;;;;-0.59;100.00;99290.47;6272033;28;20036;-76
2021/12/24 03:17:48;;;;;;;45.15;22.98;;;;;;;-0.51;100.00;99298.78;6237949;28;20403;-84
2021/12/24 03:20:57;;;;;;;44.35;22.52;;;;;;;-0.44;100.00;99284.88;6270849;28;20182;-83
2021/12/24 03:27:07;;;;;;;40.38;21.10;;;;;;;-0.35;100.00;99281.25;6254801;28;20124;-84
2021/12/24 03:30:10;;;;;;;41.20;23.23;;;;;;;-0.28;100.00;99280.16;6272272;28;20579;-76
2021/12/24 03:33:11;;;;;;;43.22;22.83;;;;;;;-0.35;100.00;99255.63;6270564;28;20388;-76
2021/12/24 03:36:13;;;;;;;42.08;21.45;;;;;;;-0.32;100.00;99260.63;6253651;28;20056;-76
2021/12/24 03:39:15;;;;;;;39.15;21.63;;;;;;;-0.26;100.00;99250.19;6254170;28;20048;-84
2021/12/24 03:42:16;;;;;;;45.37;23.93;;;;;;;-0.30;100.00;99227.28;6270526;28;20435;-76
2021/12/24 03:45:26;;;;;;;45.38;23.13;;;;;;;-0.28;100.00;99212.69;6270396;28;20079;-76
2021/12/24 03:48:44;;;;;;;46.13;24.33;;;;;;;-0.35;100.00;99231.69;6253806;28;20056;-77
2021/12/24 03:52:02;;;;;;;41.15;21.38;;;;;;;-0.38;100.00;99229.22;6271303;28;20517;-76
2021/12/24 03:55:04;;;;;;;52.47;26.77;;;;;;;-0.35;100.00;99217.16;6271303;28;20068;-76
2021/12/24 03:58:05;;;;;;;51.50;27.67;;;;;;;-0.34;100.00;99225.69;6270010;28;20045;-76
2021/12/24 04:01:06;;;;;;;47.70;23.98;;;;;;;-0.42;100.00;99229.28;6253509;28;20037;-76
2021/12/24 04:04:08;;;;;;;49.50;26.65;;;;;;;-0.36;100.00;99224.88;6270939;28;20045;-76
2021/12/24 04:07:09;;;;;;;39.43;21.50;;;;;;;-0.38;100.00;99218.97;6270377;28;20403;-77
2021/12/24 04:10:24;;;;;;;46.40;22.40;;;;;;;-0.33;100.00;99212.81;6269933;28;20274;-76
2021/12/24 04:13:26;;;;;;;31.02;17.38;;;;;;;-0.43;100.00;99190.91;6240853;28;20045;-76
2021/12/24 04:16:28;;;;;;;41.42;21.67;;;;;;;-0.30;100.00;99192.22;6270973;28;20045;-80
2021/12/24 04:24:50;;;;;;;43.33;19.58;;;;;;;-0.31;100.00;99184.56;6271080;28;20495;-80
2021/12/24 04:26:15;;;;;;;49.22;21.88;;;;;;;-0.10;100.00;99171.09;6270968;28;20124;-76
2021/12/24 04:29:16;;;;;;;36.83;19.48;;;;;;;-0.26;100.00;99163.03;6270744;28;20434;-81
2021/12/24 04:32:21;;;;;;;43.95;23.00;;;;;;;-0.21;100.00;99173.13;6270311;28;20232;-81
2021/12/24 04:52:03;;;;;;;42.17;21.27;;;;;;;-0.15;100.00;99174.69;6271314;28;20045;-82
2021/12/24 05:02:00;;;;;;;39.47;19.02;;;;;;;-0.13;100.00;99196.81;6272342;28;20045;-82
2021/12/24 05:05:20;;;;;;;42.90;21.75;;;;;;;-0.18;100.00;99193.56;6271214;28;20041;-82
2021/12/24 05:08:24;;;;;;;40.60;20.70;;;;;;;-0.12;100.00;99183.13;6271733;28;20103;-82
2021/12/24 05:11:25;;;;;;;45.80;22.08;;;;;;;-0.10;100.00;99185.66;6270788;28;20041;-81
2021/12/24 05:14:30;;;;;;;39.28;21.25;;;;;;;-0.12;100.00;99167.72;6270272;28;20410;-81
2021/12/24 05:17:47;;;;;;;42.20;20.40;;;;;;;-0.26;100.00;99131.44;6272529;28;20045;-81
2021/12/24 05:24:13;;;;;;;40.63;19.70;;;;;;;-0.19;100.00;99120.09;6275643;28;20045;-81
2021/12/24 05:27:14;;;;;;;38.55;19.88;;;;;;;-0.05;100.00;99140.16;6275413;28;20499;-76
2021/12/24 05:30:15;;;;;;;40.92;19.60;;;;;;;-0.05;100.00;99151.25;6273357;28;20048;-77
2021/12/24 05:33:16;;;;;;;41.83;21.00;;;;;;;-0.09;100.00;99141.16;6273404;28;20037;-76
2021/12/24 05:36:17;;;;;;;38.47;19.00;;;;;;;-0.05;100.00;99145.28;6256544;28;20053;-76
2021/12/24 05:39:20;;;;;;;40.40;21.83;;;;;;;-0.09;100.00;99139.41;6272974;28;20048;-76
2021/12/24 05:42:23;;;;;;;37.85;21.38;;;;;;;-0.09;100.00;99128.31;6256731;28;20119;-76
2021/12/24 05:45:25;;;;;;;46.45;24.60;;;;;;;-0.01;100.00;99134.88;6256920;28;20056;-76
2021/12/24 05:48:26;;;;;;;44.60;26.02;;;;;;;0.03;100.00;99119.41;6256532;28;20128;-76
2021/12/24 05:51:26;;;;;;;40.03;22.13;;;;;;;-0.04;100.00;99126.47;6274239;28;20480;-76
2021/12/24 05:54:27;;;;;;;39.08;19.75;;;;;;;-0.01;100.00;99131.47;6256556;28;20045;-76
2021/12/24 05:57:29;;;;;;;41.17;20.85;;;;;;;-0.09;100.00;99105.25;6273918;28;20045;-76
2021/12/24 06:00:29;;;;;;;41.05;23.02;;;;;;;-0.01;100.00;99116.09;6256247;28;20053;-76
2021/12/24 06:03:30;;;;;;;46.08;23.40;;;;;;;0.14;100.00;99105.31;6273694;28;20045;-76
2021/12/24 06:06:31;;;;;;;52.33;24.05;;;;;;;0.15;100.00;99119.81;6273796;28;20040;-76
2021/12/24 06:09:32;;;;;;;47.17;24.50;;;;;;;0.28;100.00;99114.28;6272699;28;20045;-76
2021/12/24 06:12:33;;;;;;;43.78;21.95;;;;;;;0.19;100.00;99121.41;6256208;28;20086;-76
2021/12/24 06:15:44;;;;;;;54.20;22.65;;;;;;;0.20;100.00;99104.28;6255886;28;20045;-75
2021/12/24 06:18:46;;;;;;;42.42;22.10;;;;;;;0.20;100.00;99112.81;6271014;28;20041;-76
2021/12/24 06:21:46;;;;;;;42.15;23.50;;;;;;;0.18;100.00;99093.22;6271461;28;20037;-76
2021/12/24 06:24:47;;;;;;;45.83;24.08;;;;;;;0.24;100.00;99105.00;6272259;28;20037;-76
2021/12/24 06:27:48;;;;;;;44.72;22.45;;;;;;;0.30;100.00;99117.63;6271660;28;20217;-76
2021/12/24 06:30:50;;;;;;;35.22;18.63;;;;;;;0.25;100.00;99120.38;6273568;28;20528;-76
2021/12/24 06:33:50;;;;;;;43.08;24.38;;;;;;;0.36;100.00;99118.25;6273162;28;20049;-76
2021/12/24 06:36:53;;;;;;;48.17;24.42;;;;;;;0.43;100.00;99113.75;6255654;28;20053;-82
2021/12/24 06:39:55;;;;;;;70.72;33.05;;;;;;;0.40;100.00;99112.13;6273237;28;20196;-76
2021/12/24 06:42:56;;;;;;;56.70;29.03;;;;;;;0.46;100.00;99108.53;6255306;28;20049;-76
2021/12/24 06:45:58;;;;;;;56.42;29.52;;;;;;;0.50;100.00;99110.09;6272381;28;20355;-76
2021/12/24 06:48:59;;;;;;;55.85;29.55;;;;;;;0.59;100.00;99106.34;6272571;28;20075;-76
2021/12/24 06:52:00;;;;;;;57.67;28.48;;;;;;;0.55;100.00;99102.22;6272940;28;20095;-76
2021/12/24 06:55:01;;;;;;;55.05;28.73;;;;;;;0.73;100.00;99108.44;6271504;28;20051;-76
2021/12/24 06:58:02;;;;;;;51.47;27.10;;;;;;;0.68;100.00;99110.31;6271466;28;20037;-76
2021/12/24 07:01:03;;;;;;;51.60;25.40;;;;;;;0.68;100.00;99097.47;6271735;28;20033;-76
2021/12/24 07:04:04;;;;;;;48.33;25.60;;;;;;;0.68;100.00;99116.31;6271308;28;20049;-76
2021/12/24 07:07:05;;;;;;;46.45;25.17;;;;;;;0.65;100.00;99124.13;6271861;28;20083;-75
2021/12/24 07:10:06;;;;;;;47.10;25.98;;;;;;;0.64;100.00;99113.88;6270935;28;20132;-76
2021/12/24 07:13:08;;;;;;;48.53;25.67;;;;;;;0.75;100.00;99117.75;6272309;28;20037;-75
2021/12/24 07:16:08;;;;;;;46.65;23.50;;;;;;;0.67;100.00;99114.63;6270770;28;20045;-75
2021/12/24 07:19:09;;;;;;;57.40;25.45;;;;;;;0.79;100.00;99115.94;6270956;28;20041;-75
2021/12/24 07:22:12;;;;;;;48.83;24.85;;;;;;;0.81;100.00;99119.28;6254391;28;20120;-75
2021/12/24 07:25:13;;;;;;;49.08;26.35;;;;;;;0.77;100.00;99110.84;6270771;28;20373;-75
2021/12/24 07:28:14;;;;;;;49.17;26.88;;;;;;;0.94;100.00;99112.78;6270922;28;20041;-76
2021/12/24 07:31:15;;;;;;;54.33;24.75;;;;;;;0.99;100.00;99112.66;6271557;28;20048;-76
2021/12/24 07:34:16;;;;;;;53.03;27.80;;;;;;;0.97;100.00;99096.44;6270418;28;20053;-75
2021/12/24 07:37:17;;;;;;;52.78;26.00;;;;;;;0.91;100.00;99091.53;6271650;28;20406;-76
2021/12/24 07:40:18;;;;;;;48.22;25.13;;;;;;;0.95;100.00;99068.25;6253792;28;20086;-81
2021/12/24 07:43:19;;;;;;;59.25;28.13;;;;;;;1.10;100.00;99059.13;6253926;28;20044;-81
2021/12/24 07:46:23;;;;;;;45.83;23.67;;;;;;;1.08;100.00;99053.19;6271489;28;20047;-82
2021/12/24 07:52:24;;;;;;;54.38;27.75;;;;;;;1.04;100.00;99051.63;6270238;28;20060;-82
2021/12/24 07:55:25;;;;;;;49.15;27.45;;;;;;;1.09;100.00;99049.75;6270659;28;20049;-81
2021/12/24 07:58:26;;;;;;;59.83;27.48;;;;;;;1.16;100.00;99051.16;6271112;28;20116;-82
2021/12/24 08:01:27;;;;;;;54.53;28.80;;;;;;;1.25;100.00;99039.69;6271080;28;20045;-82
2021/12/24 08:04:28;;;;;;;64.18;30.40;;;;;;;1.19;100.00;99030.50;6271991;28;20045;-82
2021/12/24 08:07:29;;;;;;;57.03;28.75;;;;;;;1.24;100.00;99011.50;6270674;28;20045;-82
2021/12/24 08:10:31;;;;;;;46.92;26.27;;;;;;;1.23;100.00;99010.66;6270070;28;20087;-82
2021/12/24 08:13:32;;;;;;;53.08;28.30;;;;;;;1.24;100.00;99014.91;6269986;28;20475;-81
2021/12/24 08:16:34;;;;;;;51.72;27.02;;;;;;;1.29;100.00;99017.28;6271536;28;20044;-82
2021/12/24 08:19:35;;;;;;;49.53;26.08;;;;;;;1.11;100.00;99000.84;6271958;28;20487;-77
2021/12/24 08:22:35;;;;;;;46.80;25.48;;;;;;;1.12;100.00;99011.06;6272063;28;20045;-76
2021/12/24 08:25:36;;;;;;;54.05;29.92;;;;;;;1.24;100.00;99001.22;6270541;28;20511;-76
2021/12/24 08:28:37;;;;;;;50.85;27.35;;;;;;;1.31;100.00;99018.88;6254540;28;20472;-76
2021/12/24 08:31:38;;;;;;;61.17;30.02;;;;;;;1.18;100.00;99020.28;6238330;28;20139;-77
2021/12/24 08:34:39;;;;;;;58.97;28.35;;;;;;;1.18;100.00;99020.28;6254061;28;20088;-82
2021/12/24 08:37:41;;;;;;;54.17;28.77;;;;;;;1.37;100.00;99021.22;6270471;28;20045;-82
2021/12/24 08:40:42;;;;;;;53.20;29.30;;;;;;;1.35;100.00;99029.91;6272051;28;20041;-82
2021/12/24 08:43:42;;;;;;;49.58;26.85;;;;;;;1.36;100.00;99027.28;6270531;28;20040;-81
2021/12/24 08:46:43;;;;;;;46.25;26.15;;;;;;;1.52;100.00;99024.91;6271683;28;20125;-81
2021/12/24 08:49:44;;;;;;;48.22;26.88;;;;;;;1.31;100.00;99033.47;6270403;28;20037;-81
2021/12/24 08:52:46;;;;;;;52.83;26.95;;;;;;;1.39;100.00;99019.41;6274809;28;20388;-80
2021/12/24 08:55:51;;;;;;;56.65;29.90;;;;;;;1.46;100.00;99025.16;6276533;28;20477;-81
2021/12/24 08:58:52;;;;;;;59.20;29.67;;;;;;;1.50;100.00;99021.56;6275328;28;20095;-78
2021/12/24 09:01:53;;;;;;;69.90;35.40;;;;;;;1.56;100.00;99041.88;6276353;28;20048;-79
2021/12/24 09:04:54;;;;;;;90.50;42.35;;;;;;;1.50;100.00;99036.16;6275123;28;20040;-78
2021/12/24 09:07:55;;;;;;;70.97;35.58;;;;;;;1.49;100.00;99016.50;6275142;28;20457;-79
2021/12/24 09:10:56;;;;;;;61.90;32.78;;;;;;;1.54;100.00;99025.69;6258203;28;20041;-79
2021/12/24 09:13:56;;;;;;;55.72;29.95;;;;;;;1.48;100.00;99023.34;6258279;28;20442;-78
2021/12/24 09:17:00;;;;;;;59.50;32.08;;;;;;;1.54;100.00;99017.13;6274663;28;20036;-79
2021/12/24 09:20:01;;;;;;;54.92;30.48;;;;;;;1.59;100.00;99017.81;6257855;28;20446;-79
2021/12/24 09:23:04;;;;;;;58.63;30.92;;;;;;;1.56;100.00;99026.44;6275408;28;20091;-79
2021/12/24 09:26:05;;;;;;;;;;;;;;;1.71;100.00;99014.72;6274710;28;20127;-79
2021/12/24 09:29:08;;;;;;;51.08;25.98;;;;;;;1.54;100.00;99006.84;6274397;28;19927;-79
2021/12/24 09:32:09;;;;;;;66.40;28.88;;;;;;;1.59;100.00;99000.63;6275365;28;20457;-81
2021/12/24 09:35:11;;;;;;;53.65;29.40;;;;;;;1.67;100.00;98992.59;6257468;28;20057;-81
2021/12/24 09:38:12;;;;;;;55.03;29.53;;;;;;;1.71;100.00;98989.00;6275217;28;20040;-80
2021/12/24 09:41:13;;;;;;;58.40;31.10;;;;;;;1.63;100.00;98988.50;6275221;28;20285;-82
2021/12/24 09:44:14;;;;;;;58.20;30.33;;;;;;;1.63;100.00;98985.91;6257611;28;20049;-82
2021/12/24 09:47:15;;;;;;;53.83;27.77;;;;;;;1.70;100.00;98994.22;6274961;28;20040;-82
2021/12/24 09:50:20;;;;;;;59.80;30.17;;;;;;;1.71;100.00;98985.56;6273110;28;20619;-82
2021/12/24 09:53:20;;;;;;;56.00;29.08;;;;;;;1.68;100.00;98986.53;6275064;28;20076;-81
2021/12/24 09:56:23;;;;;;;57.97;31.08;;;;;;;1.67;100.00;98982.31;6267209;28;20052;-81
2021/12/24 09:59:25;;;;;;;80.32;40.10;;;;;;;1.72;100.00;98982.13;6274643;28;20043;-80
2021/12/24 10:02:35;;;;;;;62.67;33.97;;;;;;;1.65;100.00;98975.53;6273089;28;20476;-79
2021/12/24 10:05:41;;;;;;;62.03;28.92;;;;;;;1.64;100.00;98964.44;6273640;28;20069;-79
2021/12/24 10:08:42;;;;;;;60.72;30.85;;;;;;;1.86;100.00;98964.38;6256846;28;20460;-76
2021/12/24 10:11:50;;;;;;;56.92;30.02;;;;;;;1.87;100.00;98950.59;6274619;28;20036;-76
2021/12/24 10:14:57;;;;;;;55.85;28.48;;;;;;;1.76;100.00;98940.78;6274577;28;20060;-76
2021/12/24 10:17:57;;;;;;;51.10;29.05;;;;;;;1.80;100.00;98949.19;6270424;28;20037;-76
2021/12/24 10:21:05;;;;;;;46.25;25.27;;;;;;;1.76;100.00;98957.94;6274063;28;20049;-76
2021/12/24 10:24:09;;;;;;;45.25;25.33;;;;;;;1.71;100.00;98955.56;6273067;28;20041;-76
2021/12/24 10:27:10;;;;;;;59.13;28.80;;;;;;;1.80;100.00;98960.31;6274382;28;20045;-76
2021/12/24 10:30:21;;;;;;;49.92;26.20;;;;;;;1.70;100.00;98953.88;6256204;28;20037;-76
2021/12/24 10:33:23;;;;;;;50.50;27.13;;;;;;;1.77;100.00;98957.88;6274036;28;20049;-76
2021/12/24 10:36:24;;;;;;;51.13;27.70;;;;;;;1.84;100.00;98955.06;6272707;28;20076;-76
2021/12/24 10:39:35;;;;;;;47.03;25.10;;;;;;;1.96;100.00;98945.06;6273071;28;20062;-76
2021/12/24 10:42:39;;;;;;;46.97;25.13;;;;;;;1.75;100.00;98944.25;6272750;28;20049;-79
2021/12/24 10:45:43;;;;;;;39.97;22.80;;;;;;;1.96;100.00;98945.06;6273797;28;20048;-79
2021/12/24 10:49:17;;;;;;;46.05;23.25;;;;;;;1.99;100.00;98946.66;6272572;28;20071;-79
2021/12/24 10:55:38;;;;;;;43.75;24.58;;;;;;;2.23;100.00;98931.88;6272338;28;20051;-79
2021/12/24 10:58:43;;;;;;;40.90;23.27;;;;;;;2.16;100.00;98922.75;6272273;28;20514;-79
2021/12/24 11:01:44;;;;;;;43.40;22.45;;;;;;;2.05;100.00;98909.53;6272319;28;20092;-79
2021/12/24 11:04:46;;;;;;;45.88;23.38;;;;;;;2.00;100.00;98913.16;6273291;28;20048;-79
2021/12/24 11:07:46;;;;;;;46.42;24.73;;;;;;;1.98;100.00;98921.84;6273117;28;20129;-79
2021/12/24 11:10:54;;;;;;;39.35;21.65;;;;;;;1.96;100.00;98916.75;6255336;28;20041;-79
2021/12/24 11:13:55;;;;;;;41.70;22.95;;;;;;;2.07;100.00;98920.59;6271721;28;20048;-77
2021/12/24 11:16:56;;;;;;;43.10;22.05;;;;;;;2.04;100.00;98913.88;6271992;28;20045;-77
2021/12/24 11:20:01;;;;;;;40.45;21.98;;;;;;;2.03;100.00;98913.91;6272036;28;20452;-77
2021/12/24 11:23:06;;;;;;;43.22;24.17;;;;;;;2.15;100.00;98911.63;6273090;28;20483;-77
2021/12/24 11:26:15;;;;;;;45.10;24.20;;;;;;;2.09;100.00;98905.94;6272170;28;20071;-77
2021/12/24 11:29:16;;;;;;;44.53;23.52;;;;;;;2.17;100.00;98914.16;6268903;28;20388;-77
2021/12/24 11:32:17;;;;;;;37.50;21.50;;;;;;;2.19;100.00;98914.91;6270014;28;20045;-76
2021/12/24 11:35:19;;;;;;;38.92;21.65;;;;;;;2.20;100.00;98919.13;6254837;28;20468;-77
2021/12/24 11:38:23;;;;;;;38.13;22.73;;;;;;;2.17;100.00;98911.56;6272675;28;20048;-78
2021/12/24 11:41:27;;;;;;;42.40;22.75;;;;;;;2.25;100.00;98911.22;6271434;28;20454;-77
2021/12/24 11:44:28;;;;;;;51.75;24.20;;;;;;;2.18;100.00;98905.50;6271245;28;20041;-77
2021/12/24 11:47:28;;;;;;;38.53;21.05;;;;;;;2.12;100.00;98909.22;6271389;28;20049;-77
2021/12/24 11:50:31;;;;;;;42.67;22.75;;;;;;;2.17;100.00;98909.81;6254892;28;20041;-77
2021/12/24 11:53:33;;;;;;;45.25;22.42;;;;;;;2.13;100.00;98894.59;6271212;28;20120;-77
2021/12/24 11:56:43;;;;;;;40.03;21.35;;;;;;;2.08;100.00;98893.94;6271952;28;20087;-76
2021/12/24 11:59:45;;;;;;;40.00;21.70;;;;;;;2.14;100.00;98897.09;6270470;28;20060;-77
2021/12/24 12:02:46;;;;;;;46.47;25.83;;;;;;;2.18;100.00;98896.06;6238530;28;20060;-78
2021/12/24 12:05:47;;;;;;;45.00;23.73;;;;;;;2.24;100.00;98902.66;6270324;28;20419;-77
2021/12/24 12:08:49;;;;;;;40.00;22.85;;;;;;;2.29;100.00;98902.47;6270549;28;20053;-77
2021/12/24 12:11:57;;;;;;;;;;;;;;;2.40;100.00;98902.81;6270390;28;20056;-79
2021/12/24 12:15:27;;;;;;;33.33;19.33;;;;;;;2.32;100.00;98907.47;6270744;28;19928;-76
2021/12/24 12:18:30;;;;;;;42.97;21.25;;;;;;;2.32;100.00;98918.59;6270662;28;20037;-75
2021/12/24 12:21:37;;;;;;;39.17;19.90;;;;;;;2.25;100.00;98919.78;6270423;28;20060;-75
2021/12/24 12:24:57;;;;;;;40.10;21.38;;;;;;;2.18;100.00;98910.66;6270334;28;20033;-77
2021/12/24 12:28:00;;;;;;;44.42;22.17;;;;;;;2.25;100.00;98911.22;6273177;28;20040;-77
2021/12/24 12:31:03;;;;;;;43.05;21.38;;;;;;;2.31;100.00;98906.63;6274156;28;20037;-76
2021/12/24 12:34:39;;;;;;;44.67;23.63;;;;;;;2.29;100.00;98905.88;6274308;28;20077;-76
2021/12/24 12:37:52;;;;;;;39.85;21.20;;;;;;;2.39;100.00;98894.25;6275509;28;20033;-75
2021/12/24 12:40:53;;;;;;;;;;;;;;;2.51;100.00;98884.28;6274817;28;20442;-75
2021/12/24 12:43:54;;;;;;;37.38;20.00;;;;;;;2.44;100.00;98886.31;6275566;28;20432;-75
2021/12/24 12:47:28;;;;;;;34.58;17.83;;;;;;;2.40;100.00;98884.78;6275263;28;20041;-76
2021/12/24 12:50:30;;;;;;;38.17;19.63;;;;;;;2.45;100.00;98887.13;6274246;28;20071;-76
2021/12/24 12:53:35;;;;;;;37.65;19.30;;;;;;;2.40;100.00;98880.47;6274063;28;20471;-76
2021/12/24 12:56:36;;;;;;;36.05;19.48;;;;;;;2.42;100.00;98882.97;6275247;28;20094;-77
2021/12/24 12:59:37;;;;;;;34.92;19.60;;;;;;;2.52;100.00;98876.47;6274136;28;20128;-77
2021/12/24 13:02:56;;;;;;;32.95;19.33;;;;;;;2.41;100.00;98871.84;6273808;28;20037;-76
2021/12/24 13:06:04;;;;;;;43.45;19.90;;;;;;;2.50;100.00;98859.44;6275080;28;20041;-76
2021/12/24 13:09:08;;;;;;;50.45;23.73;;;;;;;2.49;100.00;98865.47;6257340;28;20052;-75
2021/12/24 13:12:09;;;;;;;31.88;18.13;;;;;;;2.52;100.00;98865.34;6273766;28;20049;-76
2021/12/24 13:15:16;;;;;;;37.10;20.20;;;;;;;2.52;100.00;98857.63;6274742;28;20090;-76
2021/12/24 13:18:35;;;;;;;40.83;23.10;;;;;;;2.53;100.00;98856.72;6273475;28;20124;-75
2021/12/24 13:25:04;;;;;;;39.53;20.90;;;;;;;2.61;100.00;98852.03;6274497;28;20048;-75
2021/12/24 13:28:07;;;;;;;41.72;21.73;;;;;;;2.74;100.00;98862.56;6254900;28;20296;-75
2021/12/24 13:31:14;;;;;;;41.55;22.23;;;;;;;2.77;100.00;98867.59;6272482;28;20095;-75
2021/12/24 13:34:16;;;;;;;37.50;20.88;;;;;;;2.70;100.00;98863.63;6271634;28;20128;-75
2021/12/24 13:37:17;;;;;;;41.42;23.40;;;;;;;2.71;100.00;98865.31;6274072;28;20179;-74
2021/12/24 13:40:21;;;;;;;39.00;20.88;;;;;;;2.62;100.00;98870.00;6274211;28;20041;-75
2021/12/24 13:43:24;;;;;;;33.55;17.27;;;;;;;2.64;100.00;98867.34;6274155;28;20059;-75
2021/12/24 13:46:27;;;;;;;30.55;18.33;;;;;;;2.68;100.00;98873.16;6274123;28;20048;-75
2021/12/24 13:56:57;;;;;;;34.88;18.92;;;;;;;2.77;100.00;98870.19;6247686;28;20558;-77
2021/12/24 13:59:58;;;;;;;32.90;17.45;;;;;;;2.67;100.00;98869.78;6272677;28;20128;-77
2021/12/24 14:03:09;;;;;;;35.92;18.77;;;;;;;2.83;100.00;98868.13;6272557;28;20102;-76
2021/12/24 14:06:31;;;;;;;31.00;16.80;;;;;;;2.81;100.00;98874.28;6272552;28;20045;-75
2021/12/24 14:09:34;;;;;;;37.70;18.58;;;;;;;2.88;100.00;98880.78;6269653;28;20049;-75
2021/12/24 14:12:35;;;;;;;40.30;20.27;;;;;;;2.89;100.00;98890.19;6272116;28;20110;-75
2021/12/24 14:15:52;;;;;;;37.83;18.77;;;;;;;2.92;100.00;98891.78;6239954;28;20052;-76
2021/12/24 14:19:13;;;;;;;33.70;17.40;;;;;;;2.93;100.00;98884.00;6272837;28;20052;-76
2021/12/24 14:22:16;;;;;;;34.33;18.67;;;;;;;2.96;100.00;98891.56;6273775;28;20455;-79
2021/12/24 14:25:17;;;;;;;35.85;18.88;;;;;;;2.94;100.00;98880.50;6272200;28;20384;-78
2021/12/24 14:28:21;;;;;;;38.63;20.73;;;;;;;2.88;100.00;98890.25;6263654;28;20056;-78
2021/12/24 14:31:21;;;;;;;39.42;19.70;;;;;;;2.91;100.00;98890.13;6270725;28;20049;-78
2021/12/24 14:34:43;;;;;;;43.13;22.90;;;;;;;2.85;100.00;98885.28;6271200;28;20137;-78
2021/12/24 14:38:07;;;;;;;35.88;19.33;;;;;;;2.92;100.00;98892.63;6272381;28;20075;-78
2021/12/24 14:41:16;;;;;;;43.30;23.30;;;;;;;2.95;100.00;98894.22;6255201;28;20141;-78
2021/12/24 14:44:29;;;;;;;61.58;29.60;;;;;;;2.98;100.00;98907.78;6271137;28;20053;-79
2021/12/24 14:47:30;;;;;;;48.08;25.50;;;;;;;2.99;100.00;98898.31;6270863;28;20139;-79
2021/12/24 14:50:35;;;;;;;38.22;21.65;;;;;;;2.97;100.00;98905.28;6250780;28;20064;-79
2021/12/24 14:53:37;;;;;;;53.67;26.90;;;;;;;2.98;100.00;98900.03;6270945;28;20555;-79
2021/12/24 14:56:38;;;;;;;42.47;23.02;;;;;;;2.92;100.00;98892.63;6270438;28;20041;-79
2021/12/24 14:59:38;;;;;;;37.50;19.85;;;;;;;2.96;100.00;98898.47;6253900;28;20048;-79
2021/12/24 15:02:48;;;;;;;36.90;19.40;;;;;;;2.99;100.00;98898.31;6253862;28;20037;-79
2021/12/24 15:05:51;;;;;;;35.47;21.52;;;;;;;3.00;100.00;98900.81;6272364;28;20090;-78
2021/12/24 15:08:52;;;;;;;30.70;18.55;;;;;;;3.02;100.00;98909.28;6272233;28;20108;-79
2021/12/24 15:11:54;;;;;;;34.80;18.80;;;;;;;2.93;100.00;98901.19;6272095;28;20045;-79
2021/12/24 15:14:57;;;;;;;28.23;16.20;;;;;;;2.91;100.00;98911.56;6270852;28;20477;-80
2021/12/24 15:17:58;;;;;;;28.90;17.35;;;;;;;2.90;100.00;98903.91;6271518;28;20041;-79
2021/12/24 15:21:00;;;;;;;55.78;29.15;;;;;;;2.86;100.00;98894.66;6270098;28;20048;-79
2021/12/24 15:24:03;;;;;;;39.38;20.00;;;;;;;2.93;100.00;98896.88;6269485;28;20494;-79
2021/12/24 15:27:04;;;;;;;32.90;17.65;;;;;;;2.94;100.00;98890.78;6270523;28;20049;-79
2021/12/24 15:30:08;;;;;;;38.22;21.85;;;;;;;2.99;100.00;98885.44;6261505;28;20153;-79
2021/12/24 15:33:10;;;;;;;38.28;19.45;;;;;;;2.97;100.00;98893.25;6244877;28;20446;-80
2021/12/24 15:36:11;;;;;;;37.85;18.80;;;;;;;3.05;100.00;98894.59;6244460;28;20053;-79
2021/12/24 15:39:12;;;;;;;37.40;21.80;;;;;;;3.10;100.00;98901.19;6253271;28;20036;-80
2021/12/24 15:42:15;;;;;;;41.08;22.05;;;;;;;3.11;100.00;98908.03;6269028;28;20040;-80
2021/12/24 15:45:16;;;;;;;34.28;19.25;;;;;;;3.07;100.00;98901.38;6268416;28;20103;-79
2021/12/24 15:48:18;;;;;;;34.15;19.40;;;;;;;3.11;100.00;98899.44;6267641;28;20048;-80
2021/12/24 15:51:18;;;;;;;41.17;18.52;;;;;;;3.13;100.00;98895.06;6269228;28;20045;-80
2021/12/24 15:54:19;;;;;;;40.85;20.75;;;;;;;3.25;100.00;98909.91;6270110;28;20042;-79
2021/12/24 15:57:20;;;;;;;42.92;19.70;;;;;;;3.32;100.00;98905.31;6270001;28;20124;-79